createdAt,value
2019-03-16T00:01:20.550Z,2.50
2019-03-16T00:03:47.737Z,2.20
2019-03-16T00:06:14.909Z,1.40
2019-03-16T00:08:42.115Z,2.00
2019-03-16T00:11:09.378Z,2.27
2019-03-16T00:13:36.566Z,2.20
2019-03-16T00:16:03.777Z,2.77
2019-03-16T00:18:30.954Z,1.90
2019-03-16T00:20:58.159Z,1.97
2019-03-16T00:23:25.337Z,1.43
2019-03-16T00:25:52.516Z,1.93
2019-03-16T00:28:19.704Z,1.77
2019-03-16T00:30:46.903Z,2.50
2019-03-16T00:33:14.083Z,1.90
2019-03-16T00:35:41.305Z,2.57
2019-03-16T00:38:08.492Z,2.33
2019-03-16T00:40:35.713Z,2.43
2019-03-16T00:43:02.908Z,1.77
2019-03-16T00:45:30.101Z,1.97
2019-03-16T00:47:57.279Z,2.93
2019-03-16T00:50:24.465Z,2.57
2019-03-16T00:52:51.652Z,2.67
2019-03-16T00:55:18.907Z,1.93
2019-03-16T00:57:46.121Z,2.30
2019-03-16T01:00:14.932Z,2.40
2019-03-16T01:02:42.168Z,2.57
2019-03-16T01:05:09.442Z,2.47
2019-03-16T01:07:36.624Z,1.93
2019-03-16T01:10:04.104Z,2.33
2019-03-16T01:12:31.308Z,2.00
2019-03-16T01:14:58.548Z,1.73
2019-03-16T01:17:25.736Z,2.43
2019-03-16T01:19:52.938Z,2.07
2019-03-16T01:22:20.125Z,3.03
2019-03-16T01:24:47.342Z,2.30
2019-03-16T01:27:14.621Z,2.37
2019-03-16T01:29:41.776Z,2.70
2019-03-16T01:32:08.968Z,2.27
2019-03-16T01:34:36.144Z,1.80
2019-03-16T01:37:03.352Z,2.57
2019-03-16T01:39:30.793Z,2.17
2019-03-16T01:41:57.993Z,2.33
2019-03-16T01:44:25.181Z,2.10
2019-03-16T01:46:52.363Z,2.93
2019-03-16T01:49:19.564Z,1.97
2019-03-16T01:51:46.772Z,2.30
2019-03-16T01:54:13.968Z,1.97
2019-03-16T01:56:41.210Z,2.40
2019-03-16T01:59:08.423Z,3.63
2019-03-16T02:01:35.604Z,3.10
2019-03-16T02:04:02.815Z,3.73
2019-03-16T02:06:29.996Z,2.57
2019-03-16T02:08:57.181Z,2.67
2019-03-16T02:11:24.552Z,2.40
2019-03-16T02:13:51.732Z,2.53
2019-03-16T02:16:18.954Z,3.30
2019-03-16T02:18:46.222Z,2.90
2019-03-16T02:21:13.474Z,2.97
2019-03-16T02:23:40.679Z,2.30
2019-03-16T02:26:07.866Z,1.83
2019-03-16T02:28:35.374Z,2.70
2019-03-16T02:31:02.629Z,2.53
2019-03-16T02:33:29.825Z,3.20
2019-03-16T02:35:57.005Z,2.87
2019-03-16T02:38:24.186Z,2.57
2019-03-16T02:40:51.397Z,2.97
2019-03-16T02:43:19.332Z,2.43
2019-03-16T02:45:46.539Z,1.90
2019-03-16T02:48:13.743Z,3.07
2019-03-16T02:50:40.955Z,2.60
2019-03-16T02:53:08.213Z,2.57
2019-03-16T02:55:35.460Z,2.07
2019-03-16T02:58:02.663Z,2.33
2019-03-16T03:00:29.941Z,2.83
2019-03-16T03:02:57.351Z,2.30
2019-03-16T03:05:24.626Z,2.73
2019-03-16T03:07:51.882Z,2.33
2019-03-16T03:10:19.088Z,3.13
2019-03-16T03:12:46.334Z,2.70
2019-03-16T03:15:14.900Z,2.47
2019-03-16T03:17:42.122Z,3.50
2019-03-16T03:20:09.765Z,2.70
2019-03-16T03:22:37.072Z,3.50
2019-03-16T03:25:05.063Z,3.00
2019-03-16T03:27:32.314Z,2.90
2019-03-16T03:29:59.576Z,3.10
2019-03-16T03:32:26.877Z,2.17
2019-03-16T03:34:54.101Z,3.10
2019-03-16T03:37:21.361Z,3.30
2019-03-16T03:39:48.534Z,3.10
2019-03-16T03:42:15.742Z,2.33
2019-03-16T03:44:43.025Z,3.47
2019-03-16T03:47:10.228Z,3.07
2019-03-16T03:49:37.406Z,1.90
2019-03-16T03:52:04.604Z,2.13
2019-03-16T03:54:31.865Z,2.90
2019-03-16T03:56:59.103Z,2.90
2019-03-16T03:59:26.276Z,2.70
2019-03-16T04:01:53.472Z,4.83
2019-03-16T04:04:20.741Z,3.17
2019-03-16T04:06:47.928Z,2.83
2019-03-16T04:09:15.125Z,2.60
2019-03-16T04:11:42.403Z,2.17
2019-03-16T04:14:09.651Z,2.20
2019-03-16T04:16:36.839Z,2.77
2019-03-16T04:19:04.088Z,2.73
2019-03-16T04:21:31.293Z,2.70
2019-03-16T04:23:58.543Z,2.60
2019-03-16T04:26:25.796Z,2.70
2019-03-16T04:28:53.012Z,2.07
2019-03-16T04:31:20.193Z,2.33
2019-03-16T04:33:47.367Z,2.57
2019-03-16T04:36:14.599Z,2.63
2019-03-16T04:38:41.793Z,3.23
2019-03-16T04:41:08.988Z,1.87
2019-03-16T04:43:36.169Z,2.37
2019-03-16T04:46:03.381Z,3.43
2019-03-16T04:48:30.560Z,2.50
2019-03-16T04:50:57.761Z,1.97
2019-03-16T04:53:25.030Z,3.03
2019-03-16T04:55:52.312Z,2.33
2019-03-16T04:58:20.303Z,3.00
2019-03-16T05:00:47.561Z,2.40
2019-03-16T05:03:14.749Z,2.40
2019-03-16T05:05:41.937Z,2.80
2019-03-16T05:08:10.004Z,2.10
2019-03-16T05:10:37.199Z,2.07
2019-03-16T05:13:05.179Z,3.07
2019-03-16T05:15:32.491Z,2.30
2019-03-16T05:17:59.670Z,1.97
2019-03-16T05:20:26.877Z,2.60
2019-03-16T05:22:54.093Z,2.40
2019-03-16T05:25:21.344Z,3.40
2019-03-16T05:27:48.521Z,2.67
2019-03-16T05:30:15.716Z,2.97
2019-03-16T05:32:42.899Z,2.57
2019-03-16T05:35:10.076Z,2.57
2019-03-16T05:37:37.274Z,2.50
2019-03-16T05:40:05.937Z,2.80
2019-03-16T05:42:33.111Z,3.13
2019-03-16T05:45:00.370Z,2.33
2019-03-16T05:47:27.591Z,3.00
2019-03-16T05:49:54.770Z,3.43
2019-03-16T05:52:22.000Z,2.43
2019-03-16T05:54:49.248Z,2.00
2019-03-16T05:57:16.435Z,2.87
2019-03-16T05:59:43.648Z,3.07
2019-03-16T06:02:10.825Z,3.00
2019-03-16T06:04:38.012Z,2.87
2019-03-16T06:07:05.282Z,2.63
2019-03-16T06:09:32.489Z,2.80
2019-03-16T06:11:59.775Z,2.33
2019-03-16T06:14:26.971Z,2.90
2019-03-16T06:16:54.220Z,3.37
2019-03-16T06:19:21.440Z,2.70
2019-03-16T06:21:48.644Z,3.30
2019-03-16T06:24:15.910Z,2.43
2019-03-16T06:26:43.085Z,2.57
2019-03-16T06:29:10.298Z,2.80
2019-03-16T06:31:37.495Z,2.63
2019-03-16T06:34:04.786Z,2.27
2019-03-16T06:36:32.025Z,2.83
2019-03-16T06:38:59.213Z,2.90
2019-03-16T06:41:26.409Z,2.70
2019-03-16T06:43:53.619Z,2.10
2019-03-16T06:46:20.799Z,2.57
2019-03-16T06:48:48.017Z,2.10
2019-03-16T06:51:15.222Z,2.70
2019-03-16T06:53:42.395Z,2.97
2019-03-16T06:56:09.580Z,3.57
2019-03-16T06:58:36.810Z,3.37
2019-03-16T07:01:04.083Z,3.33
2019-03-16T07:03:31.339Z,2.53
2019-03-16T07:05:58.540Z,2.80
2019-03-16T07:08:25.721Z,3.07
2019-03-16T07:10:53.008Z,2.57
2019-03-16T07:13:20.210Z,2.30
2019-03-16T07:15:47.388Z,2.30
2019-03-16T07:18:14.585Z,3.57
2019-03-16T07:20:41.789Z,5.20
2019-03-16T07:23:09.030Z,2.90
2019-03-16T07:25:36.241Z,2.40
2019-03-16T07:28:03.464Z,3.07
2019-03-16T07:30:30.824Z,3.00
2019-03-16T07:32:58.008Z,3.17
2019-03-16T07:35:25.203Z,4.13
2019-03-16T07:37:52.393Z,2.33
2019-03-16T07:40:19.630Z,2.70
2019-03-16T07:42:46.807Z,3.87
2019-03-16T07:45:14.072Z,2.43
2019-03-16T07:47:41.249Z,2.87
2019-03-16T07:50:09.510Z,3.00
2019-03-16T07:52:36.739Z,2.40
2019-03-16T07:55:05.288Z,3.33
2019-03-16T07:57:40.170Z,2.20
2019-03-16T08:00:01.414Z,3.53
2019-03-16T08:02:28.678Z,3.13
2019-03-16T08:04:55.877Z,2.27
2019-03-16T08:07:23.148Z,3.00
2019-03-16T08:09:50.461Z,2.73
2019-03-16T08:12:17.644Z,3.37
2019-03-16T08:14:45.067Z,2.30
2019-03-16T08:17:12.281Z,3.43
2019-03-16T08:19:39.463Z,2.63
2019-03-16T08:22:06.661Z,3.67
2019-03-16T08:24:33.859Z,2.77
2019-03-16T08:27:01.117Z,2.03
2019-03-16T08:29:28.305Z,2.17
2019-03-16T08:31:55.504Z,2.40
2019-03-16T08:34:22.692Z,2.87
2019-03-16T08:36:49.865Z,2.43
2019-03-16T08:39:17.097Z,3.40
2019-03-16T08:41:44.344Z,2.30
2019-03-16T08:44:11.549Z,2.40
2019-03-16T08:46:38.828Z,2.87
2019-03-16T08:49:06.050Z,2.57
2019-03-16T08:51:33.255Z,2.07
2019-03-16T08:54:00.531Z,2.50
2019-03-16T08:56:27.733Z,4.33
2019-03-16T08:58:54.982Z,3.73
2019-03-16T09:01:22.168Z,2.63
2019-03-16T09:03:49.384Z,2.70
2019-03-16T09:06:16.583Z,2.17
2019-03-16T09:08:43.844Z,2.33
2019-03-16T09:11:11.070Z,2.87
2019-03-16T09:13:38.250Z,2.80
2019-03-16T09:16:05.507Z,2.37
2019-03-16T09:18:32.784Z,2.23
2019-03-16T09:20:59.981Z,3.00
2019-03-16T09:23:27.249Z,2.20
2019-03-16T09:25:54.533Z,2.67
2019-03-16T09:28:21.735Z,2.97
2019-03-16T09:30:48.938Z,2.87
2019-03-16T09:33:16.207Z,2.97
2019-03-16T09:35:44.127Z,4.17
2019-03-16T09:38:11.364Z,2.60
2019-03-16T09:40:38.600Z,2.77
2019-03-16T09:43:05.774Z,2.50
2019-03-16T09:45:33.065Z,3.13
2019-03-16T09:48:00.311Z,2.90
2019-03-16T09:50:27.485Z,2.23
2019-03-16T09:52:54.672Z,2.20
2019-03-16T09:55:21.899Z,3.23
2019-03-16T09:57:49.113Z,2.43
2019-03-16T10:00:17.383Z,2.07
2019-03-16T10:02:44.575Z,2.20
2019-03-16T10:05:11.787Z,2.53
2019-03-16T10:07:38.981Z,2.10
2019-03-16T10:10:10.345Z,3.20
2019-03-16T10:12:37.581Z,2.40
2019-03-16T10:15:06.130Z,2.30
2019-03-16T10:17:33.339Z,2.33
2019-03-16T10:20:00.607Z,2.37
2019-03-16T10:22:27.868Z,2.77
2019-03-16T10:24:55.054Z,2.47
2019-03-16T10:27:22.250Z,2.73
2019-03-16T10:29:49.511Z,1.60
2019-03-16T10:32:16.790Z,2.10
2019-03-16T10:34:44.063Z,2.30
2019-03-16T10:37:11.242Z,3.10
2019-03-16T10:39:38.449Z,3.03
2019-03-16T10:42:05.669Z,1.87
2019-03-16T10:44:32.885Z,3.30
2019-03-16T10:47:00.087Z,1.93
2019-03-16T10:49:27.277Z,1.90
2019-03-16T10:51:54.708Z,2.00
2019-03-16T10:54:21.972Z,1.97
2019-03-16T10:56:49.285Z,1.73
2019-03-16T10:59:16.468Z,2.57
2019-03-16T11:01:43.679Z,1.97
2019-03-16T11:04:10.881Z,2.27
2019-03-16T11:06:38.116Z,1.73
2019-03-16T11:09:06.096Z,2.63
2019-03-16T11:11:33.279Z,2.17
2019-03-16T11:14:00.482Z,1.83
2019-03-16T11:16:27.739Z,2.10
2019-03-16T11:18:54.971Z,1.90
2019-03-16T11:21:22.171Z,1.93
2019-03-16T11:23:49.434Z,1.70
2019-03-16T11:26:16.695Z,1.47
2019-03-16T11:28:43.877Z,1.83
2019-03-16T11:31:11.058Z,2.03
2019-03-16T11:33:38.277Z,1.60
2019-03-16T11:36:05.474Z,2.07
2019-03-16T11:38:32.657Z,1.37
2019-03-16T11:40:59.849Z,1.07
2019-03-16T11:43:27.117Z,1.60
2019-03-16T11:45:54.309Z,1.43
2019-03-16T11:48:21.492Z,1.30
2019-03-16T11:50:48.991Z,1.07
2019-03-16T11:53:16.809Z,1.37
2019-03-16T11:55:43.985Z,1.00
2019-03-16T11:58:11.179Z,0.90
2019-03-16T12:00:38.348Z,1.10
2019-03-16T12:03:05.546Z,1.40
2019-03-16T12:05:32.730Z,1.13
2019-03-16T12:07:59.933Z,1.27
2019-03-16T12:10:27.179Z,0.90
2019-03-16T12:12:54.384Z,0.80
2019-03-16T12:15:21.778Z,1.13
2019-03-16T12:17:49.070Z,1.60
2019-03-16T12:20:18.379Z,1.40
2019-03-16T12:22:45.733Z,1.37
2019-03-16T12:25:13.001Z,1.30
2019-03-16T12:27:40.304Z,2.00
2019-03-16T12:30:08.919Z,1.87
2019-03-16T12:32:36.136Z,1.60
2019-03-16T12:35:04.686Z,1.97
2019-03-16T12:37:31.883Z,1.33
2019-03-16T12:39:59.154Z,3.93
2019-03-16T12:42:26.432Z,2.17
2019-03-16T12:44:53.617Z,1.87
2019-03-16T12:47:20.798Z,1.70
2019-03-16T12:49:47.988Z,1.60
2019-03-16T12:52:15.173Z,1.53
2019-03-16T12:54:42.420Z,1.30
2019-03-16T12:57:09.707Z,1.53
2019-03-16T12:59:46.152Z,1.33
2019-03-16T13:02:05.840Z,2.17
2019-03-16T13:04:33.072Z,1.87
2019-03-16T13:07:00.282Z,1.67
2019-03-16T13:09:27.473Z,1.87
2019-03-16T13:11:54.657Z,1.57
2019-03-16T13:14:21.867Z,1.73
2019-03-16T13:16:49.124Z,2.17
2019-03-16T13:19:16.334Z,2.50
2019-03-16T13:21:44.004Z,1.77
2019-03-16T13:24:11.906Z,1.77
2019-03-16T13:26:39.198Z,2.10
2019-03-16T13:29:06.446Z,1.90
2019-03-16T13:31:33.710Z,2.37
2019-03-16T13:34:00.977Z,2.00
2019-03-16T13:36:28.179Z,2.40
2019-03-16T13:38:55.359Z,2.13
2019-03-16T13:41:22.636Z,1.80
2019-03-16T13:43:49.899Z,1.47
2019-03-16T13:46:17.088Z,1.20
2019-03-16T13:48:44.363Z,1.40
2019-03-16T13:51:12.374Z,1.20
2019-03-16T13:53:39.622Z,1.30
2019-03-16T13:56:07.178Z,1.37
2019-03-16T13:58:34.447Z,1.40
2019-03-16T14:01:01.739Z,1.50
2019-03-16T14:03:28.985Z,1.40
2019-03-16T14:05:56.979Z,1.20
2019-03-16T14:08:24.245Z,1.17
2019-03-16T14:10:51.524Z,1.10
2019-03-16T14:13:19.028Z,1.30
2019-03-16T14:15:46.289Z,1.20
2019-03-16T14:18:13.596Z,0.90
2019-03-16T14:20:40.782Z,1.17
2019-03-16T14:23:08.052Z,1.10
2019-03-16T14:25:35.826Z,2.20
2019-03-16T14:28:03.136Z,1.23
2019-03-16T14:30:41.050Z,1.10
2019-03-16T14:32:59.329Z,1.17
2019-03-16T14:35:26.558Z,1.63
2019-03-16T14:37:53.852Z,1.20
2019-03-16T14:40:21.371Z,1.40
2019-03-16T14:42:48.685Z,1.63
2019-03-16T14:45:16.293Z,1.30
2019-03-16T14:47:43.562Z,1.43
2019-03-16T14:50:12.461Z,1.40
2019-03-16T14:52:39.661Z,1.50
2019-03-16T14:55:06.843Z,1.77
2019-03-16T14:57:34.169Z,1.30
2019-03-16T15:00:01.519Z,1.37
2019-03-16T15:02:28.770Z,0.97
2019-03-16T15:04:56.304Z,1.37
2019-03-16T15:07:23.621Z,1.53
2019-03-16T15:09:50.796Z,1.80
2019-03-16T15:12:18.001Z,2.13
2019-03-16T15:14:45.473Z,2.70
2019-03-16T15:17:12.717Z,2.40
2019-03-16T15:19:39.962Z,2.00
2019-03-16T15:22:07.174Z,2.00
2019-03-16T15:24:34.343Z,2.07
2019-03-16T15:27:01.737Z,1.70
2019-03-16T15:29:31.340Z,2.03
2019-03-16T15:31:58.088Z,2.00
2019-03-16T15:34:25.354Z,2.27
2019-03-16T15:36:52.645Z,1.83
2019-03-16T15:39:19.924Z,2.00
2019-03-16T15:41:47.190Z,1.73
2019-03-16T15:44:14.398Z,1.80
2019-03-16T15:46:41.607Z,2.40
2019-03-16T15:49:08.819Z,2.10
2019-03-16T15:51:36.165Z,1.70
2019-03-16T15:54:03.413Z,1.77
2019-03-16T15:56:30.698Z,1.90
2019-03-16T15:58:57.988Z,1.97
2019-03-16T16:01:25.256Z,1.80
2019-03-16T16:03:52.433Z,1.83
2019-03-16T16:06:19.616Z,2.40
2019-03-16T16:08:46.873Z,2.50
2019-03-16T16:11:14.074Z,2.30
2019-03-16T16:13:41.325Z,2.40
2019-03-16T16:16:08.533Z,2.30
2019-03-16T16:18:35.909Z,2.37
2019-03-16T16:21:03.065Z,2.50
2019-03-16T16:23:30.301Z,3.13
2019-03-16T16:25:57.578Z,3.17
2019-03-16T16:28:24.868Z,3.20
2019-03-16T16:30:52.187Z,3.10
2019-03-16T16:33:19.395Z,3.30
2019-03-16T16:35:46.679Z,3.13
2019-03-16T16:38:14.075Z,3.50
2019-03-16T16:40:41.345Z,3.63
2019-03-16T16:43:08.560Z,2.83
2019-03-16T16:45:35.781Z,3.40
2019-03-16T16:48:03.035Z,3.57
2019-03-16T16:50:30.300Z,3.10
2019-03-16T16:52:57.524Z,4.40
2019-03-16T16:55:24.787Z,3.70
2019-03-16T16:57:51.978Z,4.10
2019-03-16T17:00:23.298Z,3.97
2019-03-16T17:02:50.509Z,6.23
2019-03-16T17:05:17.787Z,4.33
2019-03-16T17:07:45.096Z,4.23
2019-03-16T17:10:13.244Z,4.63
2019-03-16T17:12:40.516Z,4.60
2019-03-16T17:15:08.966Z,4.47
2019-03-16T17:17:36.614Z,4.97
2019-03-16T17:20:05.358Z,5.10
2019-03-16T17:22:32.545Z,4.80
2019-03-16T17:24:59.756Z,4.87
2019-03-16T17:27:27.005Z,4.70
2019-03-16T17:29:54.216Z,5.60
2019-03-16T17:32:21.505Z,5.07
2019-03-16T17:34:48.804Z,5.83
2019-03-16T17:37:16.021Z,7.43
2019-03-16T17:39:44.852Z,5.97
2019-03-16T17:42:12.329Z,6.40
2019-03-16T17:44:39.586Z,7.00
2019-03-16T17:47:06.819Z,7.80
2019-03-16T17:49:34.003Z,7.70
2019-03-16T17:52:01.182Z,7.83
2019-03-16T17:54:28.406Z,8.57
2019-03-16T17:56:55.698Z,9.23
2019-03-16T17:59:24.043Z,9.80
2019-03-16T18:01:54.840Z,9.63
2019-03-16T18:04:20.380Z,9.10
2019-03-16T18:06:47.644Z,9.73
2019-03-16T18:09:14.853Z,9.27
2019-03-16T18:11:42.117Z,10.47
2019-03-16T18:14:09.344Z,10.70
2019-03-16T18:16:36.567Z,10.50
2019-03-16T18:19:03.767Z,10.60
2019-03-16T18:21:30.966Z,10.77
2019-03-16T18:23:58.161Z,10.77
2019-03-16T18:26:25.431Z,9.73
2019-03-16T18:28:52.711Z,10.87
2019-03-16T18:31:19.986Z,11.40
2019-03-16T18:33:47.204Z,11.60
2019-03-16T18:36:14.401Z,11.23
2019-03-16T18:38:41.597Z,10.67
2019-03-16T18:41:08.792Z,10.87
2019-03-16T18:43:35.977Z,12.13
2019-03-16T18:46:03.263Z,11.83
2019-03-16T18:48:31.363Z,11.73
2019-03-16T18:50:58.586Z,11.53
2019-03-16T18:53:25.783Z,11.80
2019-03-16T18:55:53.013Z,10.93
2019-03-16T18:58:20.221Z,11.37
2019-03-16T19:00:47.420Z,10.90
2019-03-16T19:03:14.637Z,10.90
2019-03-16T19:05:41.837Z,11.03
2019-03-16T19:08:09.069Z,11.50
2019-03-16T19:10:36.322Z,10.10
2019-03-16T19:13:03.548Z,10.47
2019-03-16T19:15:30.797Z,9.73
2019-03-16T19:17:59.467Z,10.87
2019-03-16T19:20:27.087Z,11.43
2019-03-16T19:22:54.370Z,10.60
2019-03-16T19:25:22.381Z,10.70
2019-03-16T19:27:49.583Z,10.67
2019-03-16T19:30:17.273Z,9.67
2019-03-16T19:32:44.494Z,10.87
2019-03-16T19:35:11.699Z,11.80
2019-03-16T19:37:38.980Z,11.37
2019-03-16T19:40:08.009Z,9.83
2019-03-16T19:42:35.306Z,10.03
2019-03-16T19:45:02.649Z,10.03
2019-03-16T19:47:29.886Z,8.83
2019-03-16T19:49:57.523Z,8.13
2019-03-16T19:52:24.705Z,6.93
2019-03-16T19:54:51.912Z,8.17
2019-03-16T19:57:19.142Z,7.67
2019-03-16T19:59:46.833Z,6.13
2019-03-16T20:02:14.119Z,6.63
2019-03-16T20:04:41.405Z,6.93
2019-03-16T20:07:18.766Z,6.67
2019-03-16T20:09:37.547Z,6.40
2019-03-16T20:12:04.900Z,6.00
2019-03-16T20:14:32.127Z,6.67
2019-03-16T20:16:59.363Z,6.37
2019-03-16T20:19:26.667Z,6.93
2019-03-16T20:21:53.930Z,8.43
2019-03-16T20:24:21.222Z,7.13
2019-03-16T20:26:48.509Z,7.37
2019-03-16T20:29:15.745Z,6.67
2019-03-16T20:31:47.044Z,7.63
2019-03-16T20:34:11.935Z,6.87
2019-03-16T20:36:39.239Z,7.07
2019-03-16T20:39:06.873Z,7.70
2019-03-16T20:41:36.375Z,7.73
2019-03-16T20:44:03.220Z,7.20
2019-03-16T20:46:30.637Z,7.77
2019-03-16T20:48:57.915Z,7.90
2019-03-16T20:51:25.205Z,6.93
2019-03-16T20:53:52.427Z,7.27
2019-03-16T20:56:19.716Z,6.93
2019-03-16T20:58:46.933Z,7.07
2019-03-16T21:01:14.191Z,6.83
2019-03-16T21:03:41.427Z,6.17
2019-03-16T21:06:08.714Z,5.43
2019-03-16T21:08:35.902Z,5.97
2019-03-16T21:11:03.165Z,5.47
2019-03-16T21:13:30.391Z,5.90
2019-03-16T21:15:57.716Z,5.93
2019-03-16T21:18:24.989Z,4.93
2019-03-16T21:20:52.211Z,5.33
2019-03-16T21:23:19.478Z,4.50
2019-03-16T21:25:47.081Z,4.30
2019-03-16T21:28:15.995Z,4.23
2019-03-16T21:30:43.430Z,3.47
2019-03-16T21:33:10.739Z,4.40
2019-03-16T21:35:38.023Z,4.07
2019-03-16T21:38:05.210Z,3.73
2019-03-16T21:40:32.427Z,3.17
2019-03-16T21:42:59.710Z,3.60
2019-03-16T21:45:26.982Z,3.60
2019-03-16T21:47:59.914Z,4.00
2019-03-16T21:50:23.215Z,2.83
2019-03-16T21:52:50.466Z,3.57
2019-03-16T21:55:17.733Z,3.83
2019-03-16T21:57:44.933Z,3.03
2019-03-16T22:00:12.809Z,2.93
2019-03-16T22:02:40.022Z,2.40
2019-03-16T22:05:07.773Z,2.30
2019-03-16T22:07:35.053Z,2.33
2019-03-16T22:10:02.336Z,2.87
2019-03-16T22:12:29.587Z,2.33
2019-03-16T22:14:56.787Z,2.70
2019-03-16T22:17:24.016Z,1.87
2019-03-16T22:19:51.267Z,2.47
2019-03-16T22:22:18.477Z,2.00
2019-03-16T22:24:45.655Z,2.47
2019-03-16T22:27:12.847Z,1.90
2019-03-16T22:29:40.057Z,3.13
2019-03-16T22:32:07.251Z,3.23
2019-03-16T22:34:34.498Z,2.00
2019-03-16T22:37:01.713Z,2.40
2019-03-16T22:39:29.012Z,2.33
2019-03-16T22:41:56.303Z,2.17
2019-03-16T22:44:23.556Z,2.93
2019-03-16T22:46:50.815Z,1.93
2019-03-16T22:49:18.049Z,1.70
2019-03-16T22:51:45.317Z,1.80
2019-03-16T22:54:12.510Z,2.10
2019-03-16T22:56:39.715Z,1.60
2019-03-16T22:59:06.928Z,2.00
2019-03-16T23:01:34.126Z,2.43
2019-03-16T23:04:06.705Z,2.27
2019-03-16T23:06:30.231Z,2.40
2019-03-16T23:08:57.441Z,2.23
2019-03-16T23:11:24.711Z,1.93
2019-03-16T23:13:51.942Z,2.53
2019-03-16T23:16:19.127Z,2.17
2019-03-16T23:18:46.310Z,2.20
2019-03-16T23:21:13.515Z,2.23
2019-03-16T23:23:42.566Z,2.53
2019-03-16T23:26:09.704Z,2.40
2019-03-16T23:28:36.889Z,2.37
2019-03-16T23:31:04.114Z,2.30
2019-03-16T23:33:31.835Z,2.43
2019-03-16T23:35:59.078Z,2.03
2019-03-16T23:38:26.259Z,2.10
2019-03-16T23:40:53.499Z,2.93
2019-03-16T23:43:20.768Z,2.37
2019-03-16T23:45:47.990Z,2.27
2019-03-16T23:48:15.248Z,2.40
2019-03-16T23:50:42.509Z,2.93
2019-03-16T23:53:09.697Z,5.03
2019-03-16T23:55:36.958Z,3.00
2019-03-16T23:58:04.170Z,2.70
